Terminal Aerodrome Forecast
Issued by NWS

Home | Current Version | Previous Version | Text Only | Print | Product List | Glossary On
Versions: 1 2 3 4 5 6 7 8 9 10 11 12 13 14
000
FTUS46 KSTO 191728
TAFRBL
TAF
KRBL 191728Z 1918/2018 34005KT P6SM SCT250
     FM200500 20004KT P6SM OVC100
     FM201200 21003KT P6SM OVC050
      TEMPO 2012/2016 P6SM -RA OVC050
     FM201600 21006KT 4SM -RA OVC025=

USA.gov is the U.S. government's official web portal to all federal, state and local government web resources and services.